createdAt,value
2023-02-01T00:00:48.854Z,97176.88
2023-02-01T00:03:53.561Z,97195.69
2023-02-01T00:06:58.114Z,97189.72
2023-02-01T00:10:04.281Z,97200.00
2023-02-01T00:13:08.805Z,97197.47
2023-02-01T00:16:18.910Z,97204.25
2023-02-01T00:19:23.593Z,97204.19
2023-02-01T00:22:28.138Z,97197.34
2023-02-01T00:25:32.644Z,97198.28
2023-02-01T00:28:37.170Z,97189.81
2023-02-01T00:31:41.747Z,97190.53
2023-02-01T00:34:46.245Z,97193.16
2023-02-01T00:37:50.815Z,97193.16
2023-02-01T00:41:02.303Z,97188.03
2023-02-01T00:44:06.887Z,97180.34
2023-02-01T00:47:11.401Z,97184.63
2023-02-01T00:50:16.453Z,97189.81
2023-02-01T00:53:22.753Z,97191.50
2023-02-01T00:56:30.241Z,97190.63
2023-02-01T00:59:34.762Z,97183.81
2023-02-01T01:02:39.257Z,97172.69
2023-02-01T01:05:48.216Z,97188.13
2023-02-01T01:08:54.363Z,97177.88
2023-02-01T01:12:03.344Z,97175.25
2023-02-01T01:15:09.642Z,97191.56
2023-02-01T01:18:14.153Z,97192.38
2023-02-01T01:21:22.077Z,97175.19
2023-02-01T01:24:26.932Z,97178.75
2023-02-01T01:27:31.388Z,97183.00
2023-02-01T01:30:36.095Z,97158.19
2023-02-01T01:33:41.908Z,97149.53
2023-02-01T01:36:46.685Z,97171.03
2023-02-01T01:39:51.167Z,97165.88
2023-02-01T01:42:56.630Z,97162.44
2023-02-01T01:46:01.352Z,97163.34
2023-02-01T01:49:18.362Z,97172.66
2023-02-01T01:52:23.809Z,97176.06
2023-02-01T01:55:32.593Z,97165.06
2023-02-01T01:58:37.833Z,97159.88
2023-02-01T02:01:43.408Z,97170.19
2023-02-01T02:04:49.089Z,97144.53
2023-02-01T02:07:58.121Z,97142.78
2023-02-01T02:11:02.734Z,97150.53
2023-02-01T02:14:10.391Z,97144.56
2023-02-01T02:17:37.224Z,97158.22
2023-02-01T02:20:47.874Z,97147.16
2023-02-01T02:24:11.861Z,97152.19
2023-02-01T02:27:34.817Z,97145.44
2023-02-01T02:31:16.719Z,97142.84
2023-02-01T02:34:33.655Z,97143.66
2023-02-01T02:38:02.515Z,97146.25
2023-02-01T02:41:06.949Z,97149.63
2023-02-01T02:44:44.521Z,97135.16
2023-02-01T02:48:10.079Z,97130.84
2023-02-01T02:51:47.088Z,97134.31
2023-02-01T02:54:55.646Z,97130.06
2023-02-01T02:58:19.163Z,97122.34
2023-02-01T03:01:42.810Z,97133.47
2023-02-01T03:04:47.421Z,97120.66
2023-02-01T03:08:03.103Z,97128.34
2023-02-01T03:11:11.526Z,97132.63
2023-02-01T03:14:22.213Z,97096.69
2023-02-01T03:17:44.315Z,97112.09
2023-02-01T03:20:53.401Z,97113.84
2023-02-01T03:24:03.939Z,97104.41
2023-02-01T03:27:19.561Z,97107.00
2023-02-01T03:30:35.601Z,97112.13
2023-02-01T03:33:40.879Z,97106.16
2023-02-01T03:36:52.905Z,97107.84
2023-02-01T03:40:12.479Z,97096.75
2023-02-01T03:43:19.904Z,97097.59
2023-02-01T03:46:38.418Z,97102.72
2023-02-01T03:49:45.768Z,97095.03
2023-02-01T03:53:25.428Z,97099.28
2023-02-01T03:56:31.540Z,97101.88
2023-02-01T03:59:41.797Z,97099.31
2023-02-01T04:02:46.544Z,97101.84
2023-02-01T04:05:52.433Z,97093.31
2023-02-01T04:08:58.557Z,97080.53
2023-02-01T04:12:03.365Z,97084.78
2023-02-01T04:15:08.508Z,97073.66
2023-02-01T04:18:13.078Z,97067.72
2023-02-01T04:21:18.206Z,97042.94
2023-02-01T04:24:22.890Z,97060.81
2023-02-01T04:27:27.619Z,97036.91
2023-02-01T04:30:32.249Z,97054.88
2023-02-01T04:33:36.865Z,97060.84
2023-02-01T04:36:42.919Z,97030.97
2023-02-01T04:39:47.404Z,97066.88
2023-02-01T04:42:52.138Z,97050.63
2023-02-01T04:45:56.716Z,97059.16
2023-02-01T04:49:01.726Z,97066.88
2023-02-01T04:52:06.266Z,97066.00
2023-02-01T04:55:10.904Z,97056.59
2023-02-01T04:58:15.388Z,97048.94
2023-02-01T05:01:19.972Z,97048.09
2023-02-01T05:04:24.724Z,97057.47
2023-02-01T05:07:29.260Z,97057.47
2023-02-01T05:10:33.805Z,97076.25
2023-02-01T05:13:50.141Z,97056.63
2023-02-01T05:16:54.755Z,97047.22
2023-02-01T05:19:59.329Z,97057.47
2023-02-01T05:23:06.633Z,97068.56
2023-02-01T05:26:11.115Z,97054.06
2023-02-01T05:29:16.488Z,97056.63
2023-02-01T05:32:22.906Z,97047.22
2023-02-01T05:35:27.739Z,97054.03
2023-02-01T05:38:32.231Z,97046.38
2023-02-01T05:41:38.664Z,97047.22
2023-02-01T05:44:43.362Z,97052.34
2023-02-01T05:47:48.009Z,97042.88
2023-02-01T05:50:52.565Z,97045.50
2023-02-01T05:53:58.675Z,97042.06
2023-02-01T05:57:03.570Z,97042.09
2023-02-01T06:00:08.877Z,97045.50
2023-02-01T06:03:17.029Z,97042.91
2023-02-01T06:06:21.631Z,97036.13
2023-02-01T06:09:26.085Z,97055.72
2023-02-01T06:12:31.763Z,97054.91
2023-02-01T06:15:38.330Z,97052.34
2023-02-01T06:18:43.179Z,97039.56
2023-02-01T06:21:47.896Z,97036.97
2023-02-01T06:24:52.365Z,97036.97
2023-02-01T06:28:00.652Z,97043.78
2023-02-01T06:31:07.622Z,97028.41
2023-02-01T06:34:12.553Z,97030.16
2023-02-01T06:37:17.121Z,97018.19
2023-02-01T06:40:21.858Z,97024.16
2023-02-01T06:43:28.015Z,97027.56
2023-02-01T06:46:32.533Z,97015.59
2023-02-01T06:49:37.223Z,97030.97
2023-02-01T06:52:41.806Z,97040.41
2023-02-01T06:55:57.803Z,97036.09
2023-02-01T06:59:05.258Z,97039.53
2023-02-01T07:02:13.316Z,97037.78
2023-02-01T07:05:17.946Z,97019.91
2023-02-01T07:08:22.489Z,97033.56
2023-02-01T07:11:28.935Z,97027.56
2023-02-01T07:14:33.416Z,97032.69
2023-02-01T07:17:39.847Z,96995.13
2023-02-01T07:20:50.413Z,97021.59
2023-02-01T07:23:59.366Z,97010.47
2023-02-01T07:27:04.023Z,97009.56
2023-02-01T07:30:09.465Z,97012.19
2023-02-01T07:33:14.032Z,96949.81
2023-02-01T07:36:19.858Z,96987.41
2023-02-01T07:39:24.464Z,96985.66
2023-02-01T07:42:29.044Z,96972.03
2023-02-01T07:45:36.626Z,96964.34
2023-02-01T07:48:41.791Z,96952.44
2023-02-01T07:51:46.289Z,96973.75
2023-02-01T07:54:50.835Z,96962.69
2023-02-01T07:57:59.059Z,96963.53
2023-02-01T08:01:21.522Z,96966.09
2023-02-01T08:04:26.159Z,96963.53
2023-02-01T08:07:31.910Z,96956.72
2023-02-01T08:10:36.485Z,96979.75
2023-02-01T08:13:41.361Z,96975.50
2023-02-01T08:16:46.047Z,96981.47
2023-02-01T08:19:50.761Z,96972.94
2023-02-01T08:22:55.840Z,96972.09
2023-02-01T08:26:20.048Z,96962.66
2023-02-01T08:29:25.591Z,96963.50
2023-02-01T08:32:30.201Z,96965.16
2023-02-01T08:35:43.779Z,96969.50
2023-02-01T08:38:48.666Z,96976.31
2023-02-01T08:42:11.787Z,96968.63
2023-02-01T08:45:16.194Z,96963.53
2023-02-01T08:48:21.886Z,96925.94
2023-02-01T08:51:26.361Z,96982.28
2023-02-01T08:54:30.973Z,96965.16
2023-02-01T08:57:35.521Z,96987.38
2023-02-01T09:00:40.302Z,96986.50
2023-02-01T09:03:45.012Z,96991.63
2023-02-01T09:06:49.679Z,97002.75
2023-02-01T09:09:57.266Z,97021.59
2023-02-01T09:13:01.826Z,97023.31
2023-02-01T09:16:07.124Z,97024.09
2023-02-01T09:19:25.843Z,97035.06
2023-02-01T09:22:31.191Z,97028.22
2023-02-01T09:25:39.061Z,97019.63
2023-02-01T09:28:43.518Z,97042.72
2023-02-01T09:32:02.957Z,96989.00
2023-02-01T09:35:08.269Z,97041.94
2023-02-01T09:38:12.898Z,97052.09
2023-02-01T09:41:27.462Z,97044.41
2023-02-01T09:44:47.527Z,97068.22
2023-02-01T09:47:55.861Z,97058.72
2023-02-01T09:51:03.533Z,97059.47
2023-02-01T09:54:19.455Z,97037.31
2023-02-01T09:57:28.854Z,97049.16
2023-02-01T10:00:37.736Z,97059.41
2023-02-01T10:03:42.365Z,97067.06
2023-02-01T10:07:21.855Z,97046.69
2023-02-01T10:10:39.537Z,97054.31
2023-02-01T10:14:04.118Z,97046.97
2023-02-01T10:17:30.160Z,97047.06
2023-02-01T10:20:58.822Z,97064.09
2023-02-01T10:24:31.824Z,97059.91
2023-02-01T10:27:38.899Z,97053.09
2023-02-01T10:30:46.710Z,97048.84
2023-02-01T10:33:57.080Z,97053.16
2023-02-01T10:37:10.997Z,97056.53
2023-02-01T10:40:23.122Z,97057.38
2023-02-01T10:43:27.979Z,97061.66
2023-02-01T10:46:34.491Z,97048.09
2023-02-01T10:49:55.870Z,97034.41
2023-02-01T10:53:01.773Z,97038.66
2023-02-01T10:56:08.543Z,97023.34
2023-02-01T10:59:24.249Z,97017.34
2023-02-01T11:02:29.018Z,97017.34
2023-02-01T11:05:45.646Z,97013.94
2023-02-01T11:08:53.680Z,97021.59
2023-02-01T11:11:59.770Z,97025.03
2023-02-01T11:15:23.117Z,97013.06
2023-02-01T11:18:30.969Z,97003.69
2023-02-01T11:21:37.847Z,96984.03
2023-02-01T11:24:47.403Z,96982.34
2023-02-01T11:27:55.754Z,96990.84
2023-02-01T11:31:09.279Z,96972.94
2023-02-01T11:34:18.339Z,96983.19
2023-02-01T11:37:38.030Z,96972.06
2023-02-01T11:40:42.581Z,96974.59
2023-02-01T11:44:16.828Z,96965.16
2023-02-01T11:47:28.486Z,96964.88
2023-02-01T11:50:52.988Z,96955.38
2023-02-01T11:54:09.141Z,96972.59
2023-02-01T11:57:32.011Z,96971.88
2023-02-01T12:01:15.228Z,96974.44
2023-02-01T12:04:56.031Z,96972.78
2023-02-01T12:08:46.000Z,96968.50
2023-02-01T12:12:26.175Z,96977.06
2023-02-01T12:15:49.153Z,97001.81
2023-02-01T12:19:02.458Z,96979.63
2023-02-01T12:22:23.931Z,96994.13
2023-02-01T12:25:31.569Z,97018.16
2023-02-01T12:28:49.210Z,96965.25
2023-02-01T12:32:05.152Z,97006.06
2023-02-01T12:35:38.569Z,97015.22
2023-02-01T12:39:30.910Z,97024.63
2023-02-01T12:42:57.843Z,97030.59
2023-02-01T12:46:07.257Z,97015.28
2023-02-01T12:49:20.519Z,97024.81
2023-02-01T12:52:43.476Z,97008.72
2023-02-01T12:55:53.389Z,97024.16
2023-02-01T12:59:02.523Z,97028.44
2023-02-01T13:02:24.145Z,97015.66
2023-02-01T13:05:41.448Z,97013.06
2023-02-01T13:08:58.873Z,97030.16
2023-02-01T13:12:14.145Z,97021.59
2023-02-01T13:15:25.171Z,97004.53
2023-02-01T13:18:37.779Z,97016.47
2023-02-01T13:21:48.239Z,97001.94
2023-02-01T13:24:59.663Z,97001.06
2023-02-01T13:28:42.446Z,96994.16
2023-02-01T13:31:52.972Z,97001.06
2023-02-01T13:35:22.022Z,96985.63
2023-02-01T13:39:03.846Z,96995.94
2023-02-01T13:42:16.035Z,96993.34
2023-02-01T13:45:24.830Z,96999.34
2023-02-01T13:48:41.418Z,96995.94
2023-02-01T13:51:49.392Z,97012.16
2023-02-01T13:55:17.023Z,96989.13
2023-02-01T13:58:37.135Z,96995.97
2023-02-01T14:01:41.680Z,96982.28
2023-02-01T14:04:49.744Z,96995.13
2023-02-01T14:08:03.081Z,96990.84
2023-02-01T14:11:07.843Z,96995.13
2023-02-01T14:14:18.067Z,96993.41
2023-02-01T14:17:22.572Z,96989.13
2023-02-01T14:20:46.826Z,96984.00
2023-02-01T14:23:54.266Z,96972.03
2023-02-01T14:27:02.961Z,96973.78
2023-02-01T14:30:16.604Z,96968.66
2023-02-01T14:33:27.665Z,96976.34
2023-02-01T14:36:51.876Z,96966.94
2023-02-01T14:40:03.181Z,96979.72
2023-02-01T14:43:08.977Z,96967.75
2023-02-01T14:47:07.044Z,96977.16
2023-02-01T14:50:23.923Z,97004.53
2023-02-01T14:53:35.279Z,96949.03
2023-02-01T14:56:43.059Z,97004.50
2023-02-01T14:59:47.687Z,97017.31
2023-02-01T15:02:54.933Z,97007.03
2023-02-01T15:06:01.657Z,97005.38
2023-02-01T15:09:12.160Z,97005.34
2023-02-01T15:12:32.798Z,97000.25
2023-02-01T15:15:38.875Z,96967.84
2023-02-01T15:18:43.455Z,96992.59
2023-02-01T15:21:51.168Z,96984.91
2023-02-01T15:24:57.785Z,96992.56
2023-02-01T15:28:02.438Z,96968.66
2023-02-01T15:31:07.134Z,96985.72
2023-02-01T15:34:15.028Z,96938.78
2023-02-01T15:37:23.098Z,96983.16
2023-02-01T15:40:28.029Z,96977.16
2023-02-01T15:43:37.614Z,96981.44
2023-02-01T15:46:50.657Z,96987.41
2023-02-01T15:49:57.984Z,96978.84
2023-02-01T15:53:02.760Z,96981.44
2023-02-01T15:56:07.712Z,96973.75
2023-02-01T15:59:18.249Z,96989.09
2023-02-01T16:02:39.773Z,96981.41
2023-02-01T16:05:45.652Z,96986.56
2023-02-01T16:08:54.824Z,96994.25
2023-02-01T16:12:01.806Z,96988.28
2023-02-01T16:15:06.971Z,96984.84
2023-02-01T16:18:12.844Z,96980.53
2023-02-01T16:21:17.491Z,96989.09
2023-02-01T16:24:23.979Z,96976.25
2023-02-01T16:27:28.654Z,96998.50
2023-02-01T16:30:34.017Z,96987.38
2023-02-01T16:33:38.603Z,96986.53
2023-02-01T16:36:43.505Z,96988.28
2023-02-01T16:39:48.812Z,96996.72
2023-02-01T16:42:56.124Z,97001.06
2023-02-01T16:46:03.978Z,96986.47
2023-02-01T16:49:19.873Z,96985.66
2023-02-01T16:52:25.778Z,96986.47
2023-02-01T16:55:30.577Z,96972.00
2023-02-01T16:58:35.883Z,96999.31
2023-02-01T17:01:42.804Z,96993.38
2023-02-01T17:04:49.685Z,96988.19
2023-02-01T17:07:54.445Z,96989.03
2023-02-01T17:11:00.881Z,96988.19
2023-02-01T17:14:20.318Z,96981.34
2023-02-01T17:17:38.488Z,96995.88
2023-02-01T17:20:44.136Z,96991.66
2023-02-01T17:23:48.769Z,96985.63
2023-02-01T17:26:53.357Z,96985.63
2023-02-01T17:29:57.957Z,96982.19
2023-02-01T17:33:20.755Z,96941.28
2023-02-01T17:36:26.910Z,96980.53
2023-02-01T17:39:49.765Z,96979.63
2023-02-01T17:42:57.786Z,96994.19
2023-02-01T17:46:12.234Z,96976.25
2023-02-01T17:49:16.741Z,96971.94
2023-02-01T17:52:21.301Z,96945.50
2023-02-01T17:55:27.130Z,96975.38
2023-02-01T17:58:33.386Z,96967.72
2023-02-01T18:01:40.782Z,96977.97
2023-02-01T18:04:45.268Z,96971.16
2023-02-01T18:07:49.858Z,96965.16
2023-02-01T18:11:00.616Z,96968.56
2023-02-01T18:14:05.204Z,96960.84
2023-02-01T18:17:09.965Z,96960.84
2023-02-01T18:20:16.575Z,96950.63
2023-02-01T18:23:23.555Z,96949.72
2023-02-01T18:26:28.215Z,96941.19
2023-02-01T18:29:32.756Z,96983.09
2023-02-01T18:32:37.247Z,96944.66
2023-02-01T18:35:41.770Z,96930.03
2023-02-01T18:38:46.619Z,96920.66
2023-02-01T18:41:51.759Z,96928.34
2023-02-01T18:44:56.250Z,96917.22
2023-02-01T18:48:05.076Z,96923.22
2023-02-01T18:51:17.290Z,96895.88
2023-02-01T18:54:21.810Z,96915.47
2023-02-01T18:57:26.419Z,96912.88
2023-02-01T19:00:30.921Z,96912.91
2023-02-01T19:03:40.262Z,96912.88
2023-02-01T19:06:47.907Z,96932.56
2023-02-01T19:09:52.432Z,96915.53
2023-02-01T19:12:57.564Z,96917.25
2023-02-01T19:16:10.325Z,96940.38
2023-02-01T19:19:14.891Z,96927.59
2023-02-01T19:22:20.699Z,96919.06
2023-02-01T19:25:27.362Z,96922.47
2023-02-01T19:28:31.976Z,96900.25
2023-02-01T19:31:36.928Z,96891.66
2023-02-01T19:34:41.559Z,96913.94
2023-02-01T19:37:48.040Z,96895.16
2023-02-01T19:40:54.993Z,96899.41
2023-02-01T19:43:59.568Z,96888.31
2023-02-01T19:47:04.170Z,96884.03
2023-02-01T19:50:10.675Z,96882.38
2023-02-01T19:53:15.252Z,96888.31
2023-02-01T19:56:19.805Z,96886.59
2023-02-01T19:59:24.381Z,96896.00
2023-02-01T20:02:30.046Z,96868.72
2023-02-01T20:05:34.637Z,96910.47
2023-02-01T20:08:39.303Z,96890.06
2023-02-01T20:11:44.264Z,96886.59
2023-02-01T20:14:48.808Z,96896.84
2023-02-01T20:17:53.568Z,96885.72
2023-02-01T20:20:58.881Z,96854.97
2023-02-01T20:24:04.536Z,96878.00
2023-02-01T20:27:10.531Z,96883.97
2023-02-01T20:30:19.895Z,96845.59
2023-02-01T20:33:27.376Z,96901.06
2023-02-01T20:36:32.809Z,96907.03
2023-02-01T20:39:37.350Z,96888.25
2023-02-01T20:42:41.868Z,96888.28
2023-02-01T20:45:49.464Z,96906.19
2023-02-01T20:48:53.994Z,96909.56
2023-02-01T20:51:59.036Z,96890.78
2023-02-01T20:55:03.800Z,96887.31
2023-02-01T20:58:08.331Z,96894.16
2023-02-01T21:01:13.268Z,96879.59
2023-02-01T21:04:22.437Z,96879.69
2023-02-01T21:07:27.058Z,96890.72
2023-02-01T21:10:31.736Z,96874.50
2023-02-01T21:13:42.962Z,96851.44
2023-02-01T21:16:48.671Z,96872.78
2023-02-01T21:19:53.162Z,96877.06
2023-02-01T21:22:57.982Z,96870.34
2023-02-01T21:26:03.005Z,96869.44
2023-02-01T21:29:10.188Z,96889.97
2023-02-01T21:32:14.738Z,96880.56
2023-02-01T21:35:19.275Z,96880.53
2023-02-01T21:38:24.996Z,96874.63
2023-02-01T21:41:49.971Z,96865.34
2023-02-01T21:44:55.109Z,96859.19
2023-02-01T21:48:01.760Z,96879.69
2023-02-01T21:51:09.174Z,96873.72
2023-02-01T21:54:13.873Z,96871.09
2023-02-01T21:57:18.375Z,96875.41
2023-02-01T22:00:23.891Z,96854.06
2023-02-01T22:03:29.955Z,96860.88
2023-02-01T22:06:41.219Z,96856.56
2023-02-01T22:09:45.831Z,96893.28
2023-02-01T22:12:50.309Z,96849.63
2023-02-01T22:15:55.952Z,96859.88
2023-02-01T22:19:00.486Z,96845.41
2023-02-01T22:22:05.508Z,96854.06
2023-02-01T22:25:10.157Z,96847.22
2023-02-01T22:28:30.324Z,96830.97
2023-02-01T22:31:37.844Z,96806.28
2023-02-01T22:34:42.452Z,96853.13
2023-02-01T22:37:47.017Z,96827.47
2023-02-01T22:40:58.868Z,96825.91
2023-02-01T22:44:03.496Z,96814.84
2023-02-01T22:47:09.043Z,96836.94
2023-02-01T22:50:14.208Z,96815.75
2023-02-01T22:53:19.799Z,96848.16
2023-02-01T22:56:32.999Z,96853.28
2023-02-01T22:59:37.529Z,96839.69
2023-02-01T23:02:43.300Z,96820.94
2023-02-01T23:05:49.875Z,96854.19
2023-02-01T23:09:11.445Z,96833.75
2023-02-01T23:12:16.266Z,96856.81
2023-02-01T23:15:20.776Z,96842.28
2023-02-01T23:18:26.035Z,96837.16
2023-02-01T23:21:30.844Z,96849.97
2023-02-01T23:24:35.291Z,96853.34
2023-02-01T23:27:39.892Z,96848.22
2023-02-01T23:30:44.518Z,96833.69
2023-02-01T23:33:49.835Z,96838.00
2023-02-01T23:36:54.407Z,96850.81
2023-02-01T23:39:58.919Z,96828.63
2023-02-01T23:43:22.386Z,96838.81
2023-02-01T23:46:31.945Z,96823.44
2023-02-01T23:49:36.557Z,96823.44
2023-02-01T23:52:41.063Z,96842.28
2023-02-01T23:55:45.600Z,96808.94
2023-02-01T23:58:51.788Z,96808.09
